createdAt,value
2022-08-14T00:02:07.058Z,2.63
2022-08-14T00:07:13.941Z,3.10
2022-08-14T00:12:24.415Z,3.55
2022-08-14T00:17:27.956Z,4.03
2022-08-14T00:22:57.016Z,4.93
2022-08-14T00:27:56.477Z,4.35
2022-08-14T00:32:59.999Z,4.10
2022-08-14T00:38:02.976Z,3.47
2022-08-14T00:43:12.804Z,4.22
2022-08-14T00:48:34.590Z,3.78
2022-08-14T00:53:43.099Z,3.85
2022-08-14T00:58:48.706Z,4.25
2022-08-14T01:03:53.909Z,4.45
2022-08-14T01:08:59.449Z,4.10
2022-08-14T01:14:18.283Z,4.53
2022-08-14T01:19:44.469Z,4.72
2022-08-14T01:24:51.757Z,4.97
2022-08-14T01:29:59.410Z,4.95
2022-08-14T01:35:18.393Z,4.90
2022-08-14T01:40:41.047Z,5.45
2022-08-14T01:45:49.031Z,4.45
2022-08-14T01:51:02.941Z,5.43
2022-08-14T01:56:16.736Z,4.95
2022-08-14T02:01:21.731Z,5.78
2022-08-14T02:06:33.475Z,5.40
2022-08-14T02:11:38.110Z,5.60
2022-08-14T02:16:43.411Z,5.88
2022-08-14T02:21:50.352Z,6.15
2022-08-14T02:28:20.161Z,6.00
2022-08-14T02:32:20.025Z,6.57
2022-08-14T02:37:37.413Z,6.28
2022-08-14T02:42:54.780Z,6.38
2022-08-14T02:48:00.529Z,7.40
2022-08-14T02:53:04.864Z,6.90
2022-08-14T02:58:09.409Z,6.68
2022-08-14T03:03:12.582Z,7.03
2022-08-14T03:08:16.066Z,7.50
2022-08-14T03:13:23.318Z,6.80
2022-08-14T03:18:31.545Z,7.60
2022-08-14T03:23:38.697Z,7.88
2022-08-14T03:28:46.244Z,7.28
2022-08-14T03:33:51.812Z,7.88
2022-08-14T03:39:14.270Z,7.07
2022-08-14T03:45:26.419Z,8.50
2022-08-14T03:49:49.947Z,7.55
2022-08-14T03:54:53.242Z,8.30
2022-08-14T03:59:57.833Z,8.27
2022-08-14T04:05:11.883Z,9.23
2022-08-14T04:10:17.247Z,7.95
2022-08-14T04:15:23.411Z,7.95
2022-08-14T04:20:26.912Z,8.88
2022-08-14T04:25:32.180Z,8.73
2022-08-14T04:30:39.316Z,8.63
2022-08-14T04:35:56.502Z,8.82
2022-08-14T04:41:17.686Z,10.05
2022-08-14T04:46:55.817Z,9.20
2022-08-14T04:51:56.039Z,8.48
2022-08-14T04:56:59.229Z,9.05
2022-08-14T05:02:03.531Z,9.55
2022-08-14T05:07:09.348Z,9.38
2022-08-14T05:13:13.190Z,9.18
2022-08-14T05:17:44.213Z,10.15
2022-08-14T05:22:57.910Z,9.68
2022-08-14T05:28:11.394Z,10.50
2022-08-14T05:33:21.041Z,10.13
2022-08-14T05:38:31.127Z,9.77
2022-08-14T05:43:41.604Z,9.57
2022-08-14T05:48:48.635Z,10.18
2022-08-14T05:54:01.701Z,10.35
2022-08-14T05:59:13.208Z,8.98
2022-08-14T06:04:21.280Z,10.55
2022-08-14T06:09:24.402Z,9.80
2022-08-14T06:14:27.372Z,8.93
2022-08-14T06:19:32.033Z,10.80
2022-08-14T06:24:35.867Z,10.27
2022-08-14T06:29:39.835Z,11.43
2022-08-14T06:35:04.069Z,10.40
2022-08-14T06:40:25.536Z,9.93
2022-08-14T06:45:30.992Z,9.55
2022-08-14T06:50:35.464Z,8.35
2022-08-14T06:55:40.742Z,8.15
2022-08-14T07:01:26.793Z,7.85
2022-08-14T07:06:46.616Z,7.13
2022-08-14T07:11:50.806Z,7.60
2022-08-14T07:16:53.702Z,7.78
2022-08-14T07:21:58.073Z,6.95
2022-08-14T07:27:01.276Z,7.63
2022-08-14T07:32:06.351Z,7.93
2022-08-14T07:37:14.802Z,7.57
2022-08-14T07:42:22.555Z,7.35
2022-08-14T07:47:26.123Z,7.40
2022-08-14T07:52:42.489Z,7.35
2022-08-14T07:57:51.907Z,8.32
2022-08-14T08:02:57.076Z,8.13
2022-08-14T08:08:08.464Z,8.05
2022-08-14T08:13:30.153Z,7.38
2022-08-14T08:18:33.265Z,7.10
2022-08-14T08:23:50.878Z,7.72
2022-08-14T08:28:57.856Z,7.95
2022-08-14T08:34:06.170Z,7.22
2022-08-14T08:39:17.303Z,8.18
2022-08-14T08:44:33.378Z,8.23
2022-08-14T08:49:52.918Z,8.07
2022-08-14T08:55:05.586Z,6.95
2022-08-14T09:00:24.333Z,6.03
2022-08-14T09:05:29.170Z,7.00
2022-08-14T09:10:33.521Z,6.68
2022-08-14T09:15:42.734Z,6.65
2022-08-14T09:20:49.382Z,6.22
2022-08-14T09:25:59.063Z,5.95
2022-08-14T09:31:17.345Z,5.57
2022-08-14T09:36:36.886Z,5.47
2022-08-14T09:42:20.188Z,5.97
2022-08-14T09:47:18.781Z,4.88
2022-08-14T09:52:34.077Z,5.32
2022-08-14T09:57:38.911Z,5.60
2022-08-14T10:02:56.420Z,4.65
2022-08-14T10:08:01.957Z,4.72
2022-08-14T10:13:08.660Z,4.35
2022-08-14T10:18:18.546Z,4.20
2022-08-14T10:23:24.328Z,4.65
2022-08-14T10:29:18.238Z,3.60
2022-08-14T10:34:13.295Z,3.40
2022-08-14T10:39:19.151Z,3.88
2022-08-14T10:44:29.549Z,3.75
2022-08-14T10:49:34.172Z,3.35
2022-08-14T10:54:40.472Z,3.85
2022-08-14T10:59:49.899Z,4.00
2022-08-14T11:05:08.684Z,3.08
2022-08-14T11:10:14.577Z,3.45
2022-08-14T11:15:21.396Z,2.92
2022-08-14T11:20:29.195Z,3.38
2022-08-14T11:25:36.846Z,3.50
2022-08-14T11:30:53.977Z,3.47
2022-08-14T11:36:00.434Z,3.67
2022-08-14T11:41:05.565Z,3.47
2022-08-14T11:46:17.716Z,4.00
2022-08-14T11:51:50.849Z,3.25
2022-08-14T11:56:57.217Z,3.40
2022-08-14T12:02:38.860Z,3.22
2022-08-14T12:07:35.365Z,3.08
2022-08-14T12:12:39.374Z,3.40
2022-08-14T12:17:50.661Z,3.05
2022-08-14T12:22:55.046Z,3.55
2022-08-14T12:28:01.613Z,3.13
2022-08-14T12:33:08.899Z,3.40
2022-08-14T12:38:19.241Z,3.05
2022-08-14T12:43:22.872Z,3.20
2022-08-14T12:48:31.646Z,2.88
2022-08-14T12:53:38.967Z,2.58
2022-08-14T12:58:52.022Z,2.70
2022-08-14T13:04:08.417Z,2.60
2022-08-14T13:09:15.786Z,3.13
2022-08-14T13:14:29.878Z,2.65
2022-08-14T13:19:34.772Z,2.95
2022-08-14T13:24:39.796Z,3.05
2022-08-14T13:29:46.521Z,2.30
2022-08-14T13:34:52.518Z,2.30
2022-08-14T13:39:57.748Z,2.45
2022-08-14T13:45:03.096Z,2.35
2022-08-14T13:50:11.532Z,2.70
2022-08-14T13:55:19.185Z,2.60
2022-08-14T14:00:32.720Z,2.50
2022-08-14T14:05:52.173Z,2.33
2022-08-14T14:10:57.106Z,2.50
2022-08-14T14:16:03.915Z,2.70
2022-08-14T14:21:09.054Z,2.65
2022-08-14T14:26:20.021Z,2.80
2022-08-14T14:31:30.035Z,2.17
2022-08-14T14:36:35.656Z,2.45
2022-08-14T14:41:43.687Z,2.55
2022-08-14T14:46:51.119Z,2.63
2022-08-14T14:51:57.930Z,3.00
2022-08-14T14:57:02.167Z,2.30
2022-08-14T15:02:09.435Z,2.80
2022-08-14T15:07:16.343Z,3.88
2022-08-14T15:12:56.361Z,3.35
2022-08-14T15:17:42.483Z,2.75
2022-08-14T15:22:51.309Z,2.92
2022-08-14T15:27:55.011Z,3.72
2022-08-14T15:32:58.012Z,3.90
2022-08-14T15:38:07.862Z,10.90
2022-08-14T15:43:12.847Z,4.35
2022-08-14T15:48:22.558Z,4.80
2022-08-14T15:53:31.371Z,6.35
2022-08-14T15:58:35.583Z,5.03
2022-08-14T16:03:42.347Z,3.88
2022-08-14T16:08:58.998Z,3.20
2022-08-14T16:14:06.802Z,3.88
2022-08-14T16:19:11.440Z,4.75
2022-08-14T16:24:27.045Z,8.10
2022-08-14T16:29:32.895Z,3.90
2022-08-14T16:34:46.757Z,4.03
2022-08-14T16:39:54.153Z,3.95
2022-08-14T16:44:58.718Z,3.10
2022-08-14T16:50:04.829Z,3.83
2022-08-14T16:55:17.743Z,3.33
2022-08-14T17:00:32.657Z,3.17
2022-08-14T17:05:38.309Z,3.65
2022-08-14T17:16:25.218Z,3.63
2022-08-14T17:21:31.737Z,3.20
2022-08-14T17:26:38.665Z,3.20
2022-08-14T17:31:59.014Z,4.07
2022-08-14T17:37:05.224Z,4.00
2022-08-14T17:42:16.656Z,3.47
2022-08-14T17:47:38.370Z,3.60
2022-08-14T17:52:50.094Z,3.30
2022-08-14T17:57:54.666Z,3.63
2022-08-14T18:03:00.199Z,3.40
2022-08-14T18:08:32.755Z,3.47
2022-08-14T18:13:51.890Z,3.67
2022-08-14T18:19:02.774Z,3.85
2022-08-14T18:24:28.357Z,3.60
2022-08-14T18:29:31.609Z,6.13
2022-08-14T18:34:48.508Z,8.73
2022-08-14T18:40:03.484Z,4.28
2022-08-14T18:45:15.329Z,3.67
2022-08-14T18:50:27.863Z,4.35
2022-08-14T18:55:53.223Z,4.97
2022-08-14T19:00:59.522Z,4.10
2022-08-14T19:06:05.663Z,4.82
2022-08-14T19:11:50.486Z,4.07
2022-08-14T19:16:55.025Z,4.05
2022-08-14T19:22:01.945Z,4.57
2022-08-14T19:27:18.996Z,4.20
2022-08-14T19:32:41.125Z,4.57
2022-08-14T19:37:48.465Z,4.85
2022-08-14T19:42:58.438Z,22.23
2022-08-14T19:48:02.970Z,7.00
2022-08-14T19:53:11.205Z,4.28
2022-08-14T19:58:15.070Z,4.30
2022-08-14T20:03:23.193Z,5.40
2022-08-14T20:11:00.609Z,5.10
2022-08-14T20:14:10.330Z,4.90
2022-08-14T20:19:16.687Z,4.68
2022-08-14T20:24:31.198Z,4.93
2022-08-14T20:29:37.867Z,5.18
2022-08-14T20:34:51.165Z,5.20
2022-08-14T20:39:56.746Z,6.07
2022-08-14T20:45:23.565Z,5.35
2022-08-14T20:50:29.606Z,4.68
2022-08-14T20:55:45.119Z,4.15
2022-08-14T21:00:52.430Z,5.30
2022-08-14T21:05:58.929Z,5.07
2022-08-14T21:11:02.812Z,5.40
2022-08-14T21:16:33.750Z,5.10
2022-08-14T21:21:41.462Z,5.60
2022-08-14T21:26:50.822Z,5.45
2022-08-14T21:31:56.673Z,5.00
2022-08-14T21:37:09.759Z,4.53
2022-08-14T21:42:13.950Z,5.18
2022-08-14T21:47:20.532Z,5.03
2022-08-14T21:52:51.247Z,5.03
2022-08-14T21:58:46.164Z,5.80
2022-08-14T22:03:19.288Z,6.55
2022-08-14T22:08:29.427Z,5.47
2022-08-14T22:13:32.725Z,6.35
2022-08-14T22:18:36.558Z,5.82
2022-08-14T22:23:41.313Z,6.53
2022-08-14T22:28:46.706Z,6.68
2022-08-14T22:33:59.285Z,6.05
2022-08-14T22:39:06.762Z,5.20
2022-08-14T22:44:20.038Z,5.63
2022-08-14T22:50:32.024Z,6.20
2022-08-14T22:54:52.589Z,5.57
2022-08-14T22:59:57.285Z,6.28
2022-08-14T23:05:03.937Z,5.85
2022-08-14T23:10:31.647Z,6.75
2022-08-14T23:15:34.091Z,6.38
2022-08-14T23:20:39.598Z,6.18
2022-08-14T23:25:57.955Z,6.55
2022-08-14T23:31:05.615Z,6.43
2022-08-14T23:36:32.064Z,6.78
2022-08-14T23:41:45.761Z,6.20
2022-08-14T23:46:52.806Z,5.88
2022-08-14T23:52:50.071Z,5.35
2022-08-14T23:57:30.719Z,4.90
